Time;durP1;ratioP1;P1;durP2;ratioP2;P2;SDS_P1;SDS_P2;PMS_P1;PMS_P2;Temp;Humidity;BMP_temperature;BMP_pressure;BME280_temperature;BME280_humidity;BME280_pressure;Samples;Min_cycle;Max_cycle;Signal;HPM_P1;HPM_P2
2021/12/30 08:55:18;;;;;;;6.38;2.28;;;;;;;;;;5088863;27;1330770;-83
2021/12/30 08:57:49;;;;;;;6.53;2.53;;;;;;;;;;5105806;28;20121;-84
2021/12/30 09:01:27;;;;;;;5.50;1.88;;;;;;;;;;5120025;28;20542;-84
2021/12/30 09:03:50;;;;;;;6.55;2.30;;;;;;;;;;5107476;28;20117;-86
2021/12/30 09:06:15;;;;;;;5.72;2.15;;;;;;;;;;5115096;28;20035;-84
2021/12/30 09:08:41;;;;;;;6.05;2.47;;;;;;;;;;5122086;28;20028;-85
2021/12/30 09:11:06;;;;;;;4.55;2.28;;;;;;;;;;5096704;28;20032;-79
2021/12/30 09:13:32;;;;;;;5.85;1.95;;;;;;;;;;5090346;28;20024;-79
2021/12/30 09:15:58;;;;;;;5.35;2.42;;;;;;;;;;5090243;28;20032;-79
2021/12/30 09:18:24;;;;;;;7.18;1.95;;;;;;;;;;5089045;28;20024;-78
2021/12/30 09:20:50;;;;;;;10.57;2.20;;;;;;;;;;5090238;28;20047;-78
2021/12/30 09:23:15;;;;;;;5.45;2.20;;;;;;;;;;5088516;28;20063;-78
2021/12/30 09:25:41;;;;;;;12.25;2.55;;;;;;;;;;5090016;28;20078;-79
2021/12/30 09:28:12;;;;;;;9.55;2.60;;;;;;;;;;5071613;28;20032;-79
2021/12/30 09:30:39;;;;;;;6.30;1.98;;;;;;;;;;5089019;28;20060;-79
2021/12/30 09:33:05;;;;;;;9.93;2.30;;;;;;;;;;5088587;28;20035;-79
2021/12/30 09:35:31;;;;;;;5.78;2.25;;;;;;;;;;5088371;28;20390;-79
2021/12/30 09:38:42;;;;;;;7.32;1.80;;;;;;;;;;5071921;28;20028;-80
2021/12/30 09:41:11;;;;;;;5.40;1.98;;;;;;;;;;5028887;28;20481;-78
2021/12/30 09:43:54;;;;;;;3.65;1.70;;;;;;;;;;5013188;28;20551;-80
2021/12/30 09:46:19;;;;;;;5.93;2.23;;;;;;;;;;5046525;28;20048;-79
2021/12/30 09:48:45;;;;;;;5.32;2.15;;;;;;;;;;5088485;28;20043;-78
2021/12/30 09:51:10;;;;;;;7.45;2.25;;;;;;;;;;5089568;28;20467;-79
2021/12/30 09:53:36;;;;;;;4.57;2.38;;;;;;;;;;5089289;28;20048;-78
2021/12/30 09:56:01;;;;;;;5.18;2.25;;;;;;;;;;5088839;28;20058;-80
2021/12/30 09:58:27;;;;;;;7.28;2.17;;;;;;;;;;5055335;28;20451;-79
2021/12/30 10:00:56;;;;;;;7.30;2.53;;;;;;;;;;5088526;28;20052;-80
2021/12/30 10:03:50;;;;;;;4.47;2.10;;;;;;;;;;5055013;28;20032;-81
2021/12/30 10:06:17;;;;;;;7.73;2.60;;;;;;;;;;5054006;28;20490;-78
2021/12/30 10:09:14;;;;;;;9.93;2.58;;;;;;;;;;5058999;28;20028;-78
2021/12/30 10:11:59;;;;;;;6.63;2.33;;;;;;;;;;5061472;28;20036;-78
2021/12/30 10:14:30;;;;;;;8.40;2.47;;;;;;;;;;5074163;28;20048;-77
2021/12/30 10:17:18;;;;;;;6.13;2.17;;;;;;;;;;5075289;28;20032;-79
2021/12/30 10:19:44;;;;;;;7.65;2.47;;;;;;;;;;5075105;28;20027;-78
2021/12/30 10:22:12;;;;;;;7.78;2.42;;;;;;;;;;5073650;28;20119;-78
2021/12/30 10:24:38;;;;;;;7.82;2.20;;;;;;;;;;5074613;28;20044;-79
2021/12/30 10:27:03;;;;;;;10.27;2.83;;;;;;;;;;5074157;28;20533;-79
2021/12/30 10:29:43;;;;;;;5.97;2.60;;;;;;;;;;5073789;28;20036;-78
2021/12/30 10:32:16;;;;;;;10.00;2.83;;;;;;;;;;5074455;28;20024;-79
2021/12/30 10:35:08;;;;;;;7.18;2.05;;;;;;;;;;5057908;28;20029;-83
2021/12/30 10:37:35;;;;;;;6.78;2.30;;;;;;;;;;5078550;28;20033;-80
2021/12/30 10:40:01;;;;;;;5.95;2.15;;;;;;;;;;5059839;28;20124;-81
2021/12/30 10:42:30;;;;;;;7.13;2.50;;;;;;;;;;5077805;28;20039;-81
2021/12/30 10:45:06;;;;;;;15.40;3.25;;;;;;;;;;5078938;28;20036;-79
2021/12/30 10:47:51;;;;;;;8.60;2.53;;;;;;;;;;5077349;28;20043;-79
2021/12/30 10:50:21;;;;;;;7.78;3.13;;;;;;;;;;5057346;28;20039;-80
2021/12/30 10:52:52;;;;;;;7.53;2.15;;;;;;;;;;5073544;28;20035;-80
2021/12/30 10:55:18;;;;;;;11.00;2.60;;;;;;;;;;5074828;28;20060;-78
2021/12/30 10:57:43;;;;;;;11.48;2.92;;;;;;;;;;5074289;28;20024;-80
2021/12/30 11:00:09;;;;;;;5.63;1.75;;;;;;;;;;5075211;28;20043;-79
2021/12/30 11:02:37;;;;;;;8.70;2.22;;;;;;;;;;5075395;28;20095;-81
2021/12/30 11:05:08;;;;;;;7.80;2.47;;;;;;;;;;5056851;28;20112;-77
2021/12/30 11:07:49;;;;;;;10.88;2.47;;;;;;;;;;5058057;28;20080;-80
2021/12/30 11:10:28;;;;;;;6.32;2.10;;;;;;;;;;5056976;28;20078;-80
2021/12/30 11:13:11;;;;;;;7.22;2.47;;;;;;;;;;5056984;28;20027;-80
2021/12/30 11:15:37;;;;;;;6.10;2.10;;;;;;;;;;5073313;28;20028;-78
2021/12/30 11:18:16;;;;;;;6.10;2.17;;;;;;;;;;5055105;28;20048;-78
2021/12/30 11:20:46;;;;;;;8.15;2.33;;;;;;;;;;5074346;28;20025;-78
2021/12/30 11:23:14;;;;;;;7.97;2.28;;;;;;;;;;5074214;28;20078;-77
2021/12/30 11:25:39;;;;;;;7.72;2.30;;;;;;;;;;5039558;28;20062;-78
2021/12/30 11:28:05;;;;;;;6.72;2.75;;;;;;;;;;5072595;28;20061;-78
2021/12/30 11:30:31;;;;;;;8.60;2.33;;;;;;;;;;5074263;28;20099;-78
2021/12/30 11:32:56;;;;;;;8.18;2.60;;;;;;;;;;5072469;28;20420;-79
2021/12/30 11:35:25;;;;;;;5.00;2.03;;;;;;;;;;5072315;28;20464;-78
2021/12/30 11:37:51;;;;;;;6.15;2.45;;;;;;;;;;5072680;28;20050;-79
2021/12/30 11:40:25;;;;;;;8.70;2.47;;;;;;;;;;5072805;28;20028;-79
2021/12/30 11:43:08;;;;;;;8.07;2.38;;;;;;;;;;5073835;28;20027;-78
2021/12/30 11:45:43;;;;;;;3.95;2.00;;;;;;;;;;5072914;28;20116;-78
2021/12/30 11:48:24;;;;;;;5.38;2.05;;;;;;;;;;5072173;28;20190;-78
2021/12/30 11:51:04;;;;;;;11.95;2.15;;;;;;;;;;5072589;28;20441;-79
2021/12/30 11:53:29;;;;;;;8.85;2.45;;;;;;;;;;5055601;28;20052;-81
2021/12/30 11:56:02;;;;;;;6.97;2.40;;;;;;;;;;5072604;28;20048;-79
2021/12/30 11:58:28;;;;;;;4.78;2.00;;;;;;;;;;5073622;28;20382;-78
2021/12/30 12:01:13;;;;;;;4.18;1.90;;;;;;;;;;5072663;28;20028;-78
2021/12/30 12:03:47;;;;;;;5.72;1.95;;;;;;;;;;5072340;28;20024;-79
2021/12/30 12:06:27;;;;;;;5.28;2.35;;;;;;;;;;5072471;28;20021;-79
2021/12/30 12:09:16;;;;;;;4.22;2.08;;;;;;;;;;5072421;28;20379;-80
2021/12/30 12:11:41;;;;;;;5.25;1.73;;;;;;;;;;5073126;28;20040;-79
2021/12/30 12:14:42;;;;;;;6.55;2.38;;;;;;;;;;5073757;28;20464;-78
2021/12/30 12:17:08;;;;;;;9.20;2.08;;;;;;;;;;5034662;28;20041;-78
2021/12/30 12:19:38;;;;;;;6.45;2.38;;;;;;;;;;5073357;28;20374;-79
2021/12/30 12:22:07;;;;;;;5.40;2.05;;;;;;;;;;5071515;28;20047;-78
2021/12/30 12:24:36;;;;;;;5.75;2.10;;;;;;;;;;5054987;28;20083;-77
2021/12/30 12:27:18;;;;;;;5.63;2.17;;;;;;;;;;5072964;28;20024;-77
2021/12/30 12:29:49;;;;;;;4.57;2.10;;;;;;;;;;5073118;28;20020;-78
2021/12/30 12:32:17;;;;;;;4.60;1.88;;;;;;;;;;5072298;28;20486;-78
2021/12/30 12:34:46;;;;;;;4.88;1.65;;;;;;;;;;5073085;28;20469;-77
2021/12/30 12:37:29;;;;;;;7.70;1.95;;;;;;;;;;5071748;28;20028;-78
2021/12/30 12:40:00;;;;;;;13.27;2.28;;;;;;;;;;5072822;28;20055;-78
2021/12/30 12:42:53;;;;;;;7.75;2.45;;;;;;;;;;5071845;28;20468;-80
2021/12/30 12:45:23;;;;;;;5.25;2.00;;;;;;;;;;5072892;28;20029;-79
2021/12/30 12:48:17;;;;;;;6.43;2.22;;;;;;;;;;5072655;28;20036;-79
2021/12/30 12:50:46;;;;;;;;;;;;;;;;;;5073170;28;20127;-79
2021/12/30 12:53:19;;;;;;;6.20;2.20;;;;;;;;;;5072375;28;20019;-79
2021/12/30 12:55:45;;;;;;;6.07;2.17;;;;;;;;;;5072644;28;20060;-81
2021/12/30 12:58:10;;;;;;;10.38;2.92;;;;;;;;;;5071808;28;20467;-80
2021/12/30 13:00:39;;;;;;;6.53;1.95;;;;;;;;;;5071845;28;20111;-79
2021/12/30 13:03:05;;;;;;;5.68;2.08;;;;;;;;;;5055750;28;20025;-80
2021/12/30 13:06:08;;;;;;;4.97;2.20;;;;;;;;;;5072087;28;20364;-81
2021/12/30 13:08:39;;;;;;;5.65;2.20;;;;;;;;;;5072810;28;20466;-79
2021/12/30 13:11:06;;;;;;;3.65;1.88;;;;;;;;;;5054518;28;20111;-80
2021/12/30 13:13:38;;;;;;;7.78;2.15;;;;;;;;;;5071714;28;20086;-79
2021/12/30 13:16:07;;;;;;;4.82;2.00;;;;;;;;;;5071212;28;20021;-79
2021/12/30 13:18:33;;;;;;;7.13;2.22;;;;;;;;;;5071391;28;20420;-79
2021/12/30 13:21:15;;;;;;;5.00;2.03;;;;;;;;;;5071425;28;20024;-79
2021/12/30 13:23:41;;;;;;;4.70;2.20;;;;;;;;;;5072359;28;20382;-79
2021/12/30 13:26:09;;;;;;;5.25;2.13;;;;;;;;;;5071193;28;20028;-79
2021/12/30 13:28:52;;;;;;;4.97;1.60;;;;;;;;;;5071131;28;20028;-81
2021/12/30 13:31:18;;;;;;;6.97;2.35;;;;;;;;;;5071522;28;20035;-84
2021/12/30 13:33:53;;;;;;;5.35;1.80;;;;;;;;;;5071589;28;20470;-80
2021/12/30 13:36:19;;;;;;;8.88;2.65;;;;;;;;;;5071378;28;20497;-83
2021/12/30 13:38:44;;;;;;;5.78;2.05;;;;;;;;;;5070776;28;20033;-82
2021/12/30 13:41:19;;;;;;;6.05;2.10;;;;;;;;;;5073074;28;20119;-83
